Terminal Aerodrome Forecast
Issued by NWS Paducah, KY

Home | Current Version | Previous Version | Text Only | Print | Product List | Glossary On
Versions: 1 2 3 4 5 6 7 8 9 10 11 12 13 14 15 16
000
FTUS43 KPAH 270753 AAB
TAFPAH
TAF AMD
KPAH 270753Z 2708/2806 00000KT 5SM BR SKC
      TEMPO 2709/2713 00000KT 3SM BR
     FM271500 06005KT P6SM FEW050=

USA.gov is the U.S. government's official web portal to all federal, state and local government web resources and services.